Time;durP1;ratioP1;P1;durP2;ratioP2;P2;SDS_P1;SDS_P2;PMS_P1;PMS_P2;Temp;Humidity;BMP_temperature;BMP_pressure;BME280_temperature;BME280_humidity;BME280_pressure;Samples;Min_cycle;Max_cycle;Signal;HPM_P1;HPM_P2
2022/05/14 00:00:47;;;;;;;7.57;3.88;;;9.50;99.90;;;;;;5031106;28;20026;-76
2022/05/14 00:03:13;;;;;;;10.73;4.03;;;9.40;99.90;;;;;;5028488;28;20029;-76
2022/05/14 00:05:39;;;;;;;7.30;3.75;;;9.40;99.90;;;;;;5028796;28;20021;-75
2022/05/14 00:08:05;;;;;;;11.93;4.35;;;9.30;99.90;;;;;;5030122;28;20055;-74
2022/05/14 00:10:32;;;;;;;10.27;4.50;;;9.20;99.90;;;;;;5029724;28;20033;-75
2022/05/14 00:13:04;;;;;;;9.95;4.47;;;9.10;99.90;;;;;;5028929;28;20029;-75
2022/05/14 00:15:38;;;;;;;7.22;3.95;;;9.10;99.90;;;;;;5029622;28;20041;-75
2022/05/14 00:18:06;;;;;;;8.77;4.57;;;9.10;99.90;;;;;;5030054;28;20056;-76
2022/05/14 00:20:32;;;;;;;13.30;5.18;;;9.20;99.90;;;;;;5031184;28;20087;-75
2022/05/14 00:22:58;;;;;;;9.77;4.80;;;9.10;99.90;;;;;;5029707;28;20037;-75
2022/05/14 00:25:25;;;;;;;7.45;4.65;;;9.10;99.90;;;;;;5028799;28;20052;-74
2022/05/14 00:27:52;;;;;;;14.95;4.70;;;9.10;99.90;;;;;;5029793;28;20032;-74
2022/05/14 00:30:20;;;;;;;9.43;4.55;;;9.20;99.90;;;;;;5030534;28;20042;-74
2022/05/14 00:32:47;;;;;;;9.48;4.10;;;9.10;99.90;;;;;;5030059;28;20116;-76
2022/05/14 00:35:14;;;;;;;13.32;4.63;;;9.00;99.90;;;;;;5029753;28;20034;-75
2022/05/14 00:37:39;;;;;;;9.00;4.20;;;9.10;99.90;;;;;;5029131;28;20091;-76
2022/05/14 00:40:10;;;;;;;8.27;4.10;;;9.10;99.90;;;;;;5029603;28;20053;-73
2022/05/14 00:42:35;;;;;;;7.88;4.25;;;9.10;99.90;;;;;;5029903;28;20030;-75
2022/05/14 00:45:01;;;;;;;8.05;3.72;;;9.10;99.90;;;;;;5029290;28;20110;-75
2022/05/14 00:47:33;;;;;;;11.98;3.67;;;9.10;99.90;;;;;;5029885;28;20033;-73
2022/05/14 00:49:59;;;;;;;7.00;3.55;;;8.90;99.90;;;;;;5029515;28;20145;-75
2022/05/14 00:52:27;;;;;;;8.32;4.22;;;8.90;99.90;;;;;;5029497;28;20108;-70
2022/05/14 00:55:10;;;;;;;9.75;4.35;;;8.90;99.90;;;;;;5027620;28;20128;-74
2022/05/14 00:57:39;;;;;;;7.85;4.00;;;8.90;99.90;;;;;;5027910;28;20115;-73
2022/05/14 01:00:14;;;;;;;9.52;4.30;;;8.80;99.90;;;;;;5029733;28;20083;-75
2022/05/14 01:02:40;;;;;;;8.68;4.40;;;8.80;99.90;;;;;;4996213;28;20036;-75
2022/05/14 01:05:09;;;;;;;8.25;3.97;;;8.90;99.90;;;;;;5027679;28;20037;-73
2022/05/14 01:07:37;;;;;;;7.80;4.00;;;8.90;99.90;;;;;;5009075;28;20037;-74
2022/05/14 01:10:09;;;;;;;8.40;4.00;;;8.90;99.90;;;;;;5029327;28;20102;-72
2022/05/14 01:12:38;;;;;;;9.95;4.35;;;8.90;99.90;;;;;;5010557;28;20052;-76
2022/05/14 01:15:24;;;;;;;10.10;4.57;;;8.80;99.90;;;;;;5009318;28;20041;-72
2022/05/14 01:17:51;;;;;;;9.70;4.10;;;8.70;99.90;;;;;;5020508;28;20033;-73
2022/05/14 01:20:18;;;;;;;7.85;3.80;;;8.80;99.90;;;;;;5029863;28;20571;-75
2022/05/14 01:23:04;;;;;;;6.68;4.00;;;8.80;99.90;;;;;;5028790;28;20602;-74
2022/05/14 01:28:51;;;;;;;7.50;4.10;;;8.50;99.90;;;;;;5028050;28;20119;-75
2022/05/14 01:31:19;;;;;;;9.02;4.50;;;8.40;99.90;;;;;;5030510;28;20554;-74
2022/05/14 01:33:47;;;;;;;10.50;4.72;;;8.30;99.90;;;;;;5024508;28;20030;-75
2022/05/14 01:36:16;;;;;;;10.90;4.68;;;8.30;99.90;;;;;;4996360;28;20445;-73
2022/05/14 01:38:42;;;;;;;12.95;4.47;;;8.40;99.90;;;;;;5026170;28;20457;-74
2022/05/14 01:41:09;;;;;;;10.20;4.43;;;8.40;99.90;;;;;;5039124;28;20068;-73
2022/05/14 01:43:35;;;;;;;10.45;4.10;;;8.40;99.90;;;;;;5028145;28;20174;-75
2022/05/14 01:46:06;;;;;;;9.93;4.18;;;8.30;99.90;;;;;;5026620;28;20104;-73
2022/05/14 01:48:32;;;;;;;;;;;8.20;99.90;;;;;;5029473;28;20033;-74
2022/05/14 01:51:04;;;;;;;7.07;3.65;;;8.10;99.90;;;;;;5027699;28;20377;-74
2022/05/14 01:53:39;;;;;;;7.30;4.00;;;8.10;99.90;;;;;;5027162;28;20264;-75
2022/05/14 01:56:05;;;;;;;7.55;4.07;;;8.00;99.90;;;;;;5009941;28;20127;-73
2022/05/14 01:58:37;;;;;;;12.30;4.53;;;7.90;99.90;;;;;;5027311;28;20515;-73
2022/05/14 02:01:27;;;;;;;7.22;4.18;;;7.90;99.90;;;;;;5021033;28;20034;-73
2022/05/14 02:04:03;;;;;;;8.05;4.28;;;8.00;99.90;;;;;;5022274;28;20033;-71
2022/05/14 02:06:32;;;;;;;8.80;4.60;;;8.00;99.90;;;;;;5023443;28;20102;-69
2022/05/14 02:09:03;;;;;;;10.60;5.10;;;8.10;99.90;;;;;;5027898;28;20033;-75
2022/05/14 02:11:31;;;;;;;11.00;4.97;;;8.10;99.90;;;;;;5027623;28;20029;-69
2022/05/14 02:13:57;;;;;;;8.07;4.70;;;8.20;99.90;;;;;;5026765;28;20490;-75
2022/05/14 02:16:26;;;;;;;7.90;4.13;;;8.20;99.90;;;;;;5027341;28;20048;-72
2022/05/14 02:18:52;;;;;;;13.20;4.03;;;8.20;99.90;;;;;;5028516;28;20033;-75
2022/05/14 02:21:24;;;;;;;10.45;4.32;;;7.90;99.90;;;;;;5028551;28;20037;-75
2022/05/14 02:23:51;;;;;;;9.30;3.97;;;7.70;99.90;;;;;;5026665;28;20038;-74
2022/05/14 02:26:17;;;;;;;7.70;3.97;;;7.60;99.90;;;;;;5026736;28;20041;-75
2022/05/14 02:28:43;;;;;;;8.45;4.22;;;7.50;99.90;;;;;;5027565;28;20592;-73
2022/05/14 02:31:09;;;;;;;8.95;4.38;;;7.50;99.90;;;;;;5027851;28;20029;-74
2022/05/14 02:33:37;;;;;;;9.48;4.43;;;7.60;99.90;;;;;;5027990;28;20033;-74
2022/05/14 02:36:08;;;;;;;8.30;4.03;;;7.60;99.90;;;;;;5027765;28;20143;-74
2022/05/14 02:38:36;;;;;;;9.00;3.70;;;7.50;99.90;;;;;;5027223;28;20065;-76
2022/05/14 02:41:09;;;;;;;8.88;4.10;;;7.40;99.90;;;;;;5027711;28;20029;-74
2022/05/14 02:43:35;;;;;;;9.18;4.22;;;7.40;99.90;;;;;;5023671;28;20402;-75
2022/05/14 02:46:02;;;;;;;9.52;4.70;;;7.50;99.90;;;;;;5026250;28;20041;-73
2022/05/14 02:48:28;;;;;;;9.07;4.25;;;7.50;99.90;;;;;;5024548;28;20037;-71
2022/05/14 02:51:06;;;;;;;8.35;4.25;;;7.50;99.90;;;;;;5027091;28;20461;-73
2022/05/14 02:53:32;;;;;;;7.55;4.65;;;7.50;99.90;;;;;;5026744;28;20034;-70
2022/05/14 02:55:57;;;;;;;9.93;5.28;;;7.60;99.90;;;;;;5029949;28;20509;-73
2022/05/14 03:01:07;;;;;;;11.48;4.20;;;7.40;99.90;;;;;;5032226;28;20083;-74
2022/05/14 03:03:36;;;;;;;12.88;4.47;;;7.20;99.90;;;;;;5028136;28;20037;-72
2022/05/14 03:06:02;;;;;;;7.35;4.45;;;7.10;99.90;;;;;;5032451;28;20376;-74
2022/05/14 03:08:28;;;;;;;9.48;4.38;;;7.10;99.90;;;;;;5028803;28;20038;-74
2022/05/14 03:10:54;;;;;;;8.93;4.57;;;7.10;99.90;;;;;;5029364;28;20036;-73
2022/05/14 03:13:19;;;;;;;9.05;4.22;;;7.20;99.90;;;;;;5031448;28;20584;-72
2022/05/14 03:15:45;;;;;;;9.02;4.47;;;7.20;99.90;;;;;;5029271;28;20033;-74
2022/05/14 03:18:10;;;;;;;9.70;4.05;;;7.10;99.90;;;;;;5032089;28;20030;-74
2022/05/14 03:20:36;;;;;;;6.80;4.32;;;7.20;99.90;;;;;;5029368;28;20393;-74
2022/05/14 03:23:02;;;;;;;8.65;4.15;;;7.20;99.90;;;;;;5032315;28;20041;-74
2022/05/14 03:25:27;;;;;;;10.82;4.88;;;7.20;99.90;;;;;;5030418;28;20041;-73
2022/05/14 03:27:53;;;;;;;9.32;4.13;;;7.10;99.90;;;;;;5030951;28;20033;-72
2022/05/14 03:30:19;;;;;;;9.88;4.78;;;7.00;99.90;;;;;;5030771;28;20067;-74
2022/05/14 03:32:44;;;;;;;8.55;4.20;;;7.10;99.90;;;;;;5030856;28;20040;-74
2022/05/14 03:35:10;;;;;;;9.40;4.53;;;7.20;99.90;;;;;;5028916;28;20077;-72
2022/05/14 03:37:36;;;;;;;7.88;4.10;;;7.10;99.90;;;;;;5031244;28;20041;-72
2022/05/14 03:40:04;;;;;;;10.30;3.60;;;7.20;99.90;;;;;;5029898;28;20053;-74
2022/05/14 03:42:31;;;;;;;8.30;3.97;;;7.10;99.90;;;;;;5030204;28;20033;-72
2022/05/14 03:44:57;;;;;;;8.88;4.20;;;6.90;99.90;;;;;;5012643;28;20029;-74
2022/05/14 03:47:23;;;;;;;6.60;3.60;;;6.80;99.90;;;;;;5031208;28;20033;-72
2022/05/14 03:49:49;;;;;;;5.95;4.10;;;6.80;99.90;;;;;;5009589;28;20636;-74
2022/05/14 03:52:15;;;;;;;6.25;3.78;;;6.80;99.90;;;;;;5030384;28;20029;-73
2022/05/14 03:54:43;;;;;;;6.47;4.03;;;6.80;99.90;;;;;;5028848;28;20094;-74
2022/05/14 03:57:09;;;;;;;8.65;4.20;;;6.80;99.90;;;;;;5032518;28;20040;-73
2022/05/14 03:59:35;;;;;;;9.00;4.47;;;6.80;99.90;;;;;;5028941;28;20498;-70
2022/05/14 04:02:02;;;;;;;7.75;4.05;;;6.70;99.90;;;;;;5030011;28;20033;-73
2022/05/14 04:04:28;;;;;;;7.90;4.65;;;6.70;99.90;;;;;;5031220;28;20091;-73
2022/05/14 04:06:53;;;;;;;6.43;3.80;;;6.70;99.90;;;;;;5030351;28;20121;-71
2022/05/14 04:09:20;;;;;;;7.70;4.00;;;6.70;99.90;;;;;;5029656;28;20470;-73
2022/05/14 04:11:46;;;;;;;10.35;3.90;;;6.70;99.90;;;;;;5028803;28;20033;-73
2022/05/14 04:14:12;;;;;;;9.65;4.35;;;6.70;99.90;;;;;;5031163;28;20383;-73
2022/05/14 04:16:38;;;;;;;6.10;3.55;;;6.80;99.90;;;;;;5029329;28;20044;-73
2022/05/14 04:19:04;;;;;;;6.40;3.70;;;6.90;99.90;;;;;;5030561;28;20164;-73
2022/05/14 04:21:32;;;;;;;8.93;3.50;;;7.00;99.90;;;;;;5030453;28;20040;-72
2022/05/14 04:23:59;;;;;;;7.15;3.80;;;7.00;99.90;;;;;;5028367;28;20037;-72
2022/05/14 04:26:25;;;;;;;8.23;3.45;;;7.00;99.90;;;;;;5029879;28;20561;-72
2022/05/14 04:28:51;;;;;;;7.13;3.75;;;7.10;99.90;;;;;;5028888;28;20108;-72
2022/05/14 04:31:18;;;;;;;6.68;3.70;;;7.20;99.90;;;;;;5031354;28;20061;-74
2022/05/14 04:33:43;;;;;;;6.80;3.58;;;7.50;99.90;;;;;;5029858;28;20045;-73
2022/05/14 04:36:09;;;;;;;9.40;4.07;;;7.70;99.90;;;;;;5023944;28;20397;-72
2022/05/14 04:38:35;;;;;;;12.30;3.70;;;8.00;99.90;;;;;;5030440;28;20391;-70
2022/05/14 04:41:01;;;;;;;8.48;3.55;;;8.20;99.90;;;;;;5029636;28;20108;-74
2022/05/14 04:43:27;;;;;;;6.95;3.53;;;8.40;99.90;;;;;;5019285;28;20201;-72
2022/05/14 04:45:53;;;;;;;5.15;3.38;;;8.60;99.90;;;;;;5028515;28;20124;-72
2022/05/14 04:48:20;;;;;;;10.10;3.63;;;8.80;99.90;;;;;;5030636;28;20040;-74
2022/05/14 04:50:46;;;;;;;7.07;2.90;;;8.90;99.90;;;;;;5028609;28;20110;-73
2022/05/14 04:53:12;;;;;;;6.63;3.45;;;8.90;99.90;;;;;;5029458;28;20493;-74
2022/05/14 04:55:38;;;;;;;7.63;3.45;;;8.80;99.90;;;;;;5025867;28;20033;-71
2022/05/14 04:58:08;;;;;;;6.00;3.20;;;8.80;99.90;;;;;;5028879;28;20075;-75
2022/05/14 05:00:36;;;;;;;6.27;3.53;;;9.00;99.90;;;;;;5027447;28;20030;-74
2022/05/14 05:03:19;;;;;;;7.13;3.50;;;9.30;99.90;;;;;;5028165;28;20268;-74
2022/05/14 05:05:47;;;;;;;7.47;3.42;;;9.60;99.90;;;;;;5027119;28;20041;-74
2022/05/14 05:08:13;;;;;;;5.40;3.45;;;9.80;99.90;;;;;;5028463;28;20033;-73
2022/05/14 05:10:39;;;;;;;4.50;3.10;;;10.10;99.90;;;;;;5025594;28;20033;-71
2022/05/14 05:13:12;;;;;;;7.13;3.88;;;10.30;99.90;;;;;;5028873;28;20094;-75
2022/05/14 05:15:38;;;;;;;7.47;3.40;;;10.50;99.90;;;;;;5027937;28;20049;-71
2022/05/14 05:18:05;;;;;;;6.93;3.65;;;10.50;99.90;;;;;;5027429;28;20117;-74
2022/05/14 05:20:31;;;;;;;7.25;3.55;;;10.50;99.90;;;;;;5011953;28;20040;-75
2022/05/14 05:22:56;;;;;;;13.35;3.58;;;10.50;99.90;;;;;;5028894;28;20029;-74
2022/05/14 05:25:22;;;;;;;8.70;3.65;;;10.50;99.90;;;;;;5030621;28;20079;-74
2022/05/14 05:27:47;;;;;;;7.03;3.42;;;10.50;99.90;;;;;;5029317;28;20042;-74
2022/05/14 05:30:13;;;;;;;5.40;3.30;;;10.50;99.90;;;;;;5029922;28;20030;-74
2022/05/14 05:32:39;;;;;;;5.45;3.67;;;10.70;99.90;;;;;;5028219;28;20029;-71
2022/05/14 05:35:05;;;;;;;5.60;3.80;;;10.80;99.90;;;;;;5027065;28;20049;-72
2022/05/14 05:37:31;;;;;;;8.80;4.07;;;10.80;99.90;;;;;;5028904;28;20413;-75
2022/05/14 05:39:57;;;;;;;9.50;3.80;;;10.90;99.90;;;;;;5029740;28;20053;-75
2022/05/14 05:42:22;;;;;;;6.43;3.80;;;10.90;99.90;;;;;;5027452;28;20092;-74
2022/05/14 05:44:48;;;;;;;7.57;3.78;;;10.90;99.90;;;;;;5029395;28;20497;-74
2022/05/14 05:47:14;;;;;;;9.75;4.32;;;11.10;99.90;;;;;;5029491;28;20036;-75
2022/05/14 05:49:40;;;;;;;7.82;3.80;;;11.10;99.90;;;;;;5029871;28;20026;-73
2022/05/14 05:52:06;;;;;;;8.77;4.18;;;11.20;99.90;;;;;;5021125;28;20163;-75
2022/05/14 05:57:17;;;;;;;7.22;3.72;;;11.50;99.90;;;;;;5028492;28;20075;-77
2022/05/14 05:59:43;;;;;;;7.50;4.05;;;11.70;99.90;;;;;;5009091;28;20057;-72
2022/05/14 06:02:09;;;;;;;6.95;4.10;;;11.90;99.90;;;;;;5024041;28;20064;-77
2022/05/14 06:04:38;;;;;;;5.80;3.92;;;12.00;99.90;;;;;;5029229;28;20547;-74
2022/05/14 06:07:04;;;;;;;7.20;3.90;;;12.30;99.90;;;;;;5028872;28;20032;-74
2022/05/14 06:09:30;;;;;;;6.60;3.85;;;12.70;99.90;;;;;;5009718;28;20037;-75
2022/05/14 06:11:58;;;;;;;9.10;4.18;;;12.90;99.90;;;;;;5026240;28;20022;-76
2022/05/14 06:14:25;;;;;;;7.38;4.20;;;13.20;99.90;;;;;;5027815;28;20501;-77
2022/05/14 06:16:52;;;;;;;9.05;4.22;;;13.50;99.90;;;;;;5028328;28;20385;-78
2022/05/14 06:19:18;;;;;;;9.20;4.47;;;13.50;99.90;;;;;;5027868;28;20048;-75
2022/05/14 06:21:43;;;;;;;7.90;3.83;;;13.60;99.90;;;;;;5028264;28;20390;-74
2022/05/14 06:24:10;;;;;;;12.52;4.18;;;13.80;99.90;;;;;;5027035;28;20037;-75
2022/05/14 06:26:37;;;;;;;7.90;4.13;;;13.90;99.90;;;;;;5029659;28;20033;-74
2022/05/14 06:29:04;;;;;;;9.50;4.20;;;14.00;99.90;;;;;;5026177;28;20167;-73
2022/05/14 06:31:29;;;;;;;7.07;4.00;;;14.10;99.90;;;;;;5029508;28;20044;-77
2022/05/14 06:33:55;;;;;;;7.90;3.90;;;14.30;99.90;;;;;;5008087;28;20037;-75
2022/05/14 06:36:21;;;;;;;6.43;3.97;;;14.40;99.90;;;;;;5023342;28;20036;-76
2022/05/14 06:38:47;;;;;;;9.15;3.78;;;14.50;99.90;;;;;;5028518;28;20437;-77
2022/05/14 06:41:14;;;;;;;6.10;3.80;;;14.60;99.90;;;;;;5025424;28;20060;-77
2022/05/14 06:43:40;;;;;;;12.80;4.05;;;14.70;99.90;;;;;;5029273;28;20392;-73
2022/05/14 06:46:06;;;;;;;8.70;4.05;;;14.90;99.90;;;;;;5023059;28;20030;-76
2022/05/14 06:48:32;;;;;;;9.02;4.10;;;14.90;99.90;;;;;;5024174;28;20032;-75
2022/05/14 06:51:02;;;;;;;9.52;4.10;;;15.00;99.90;;;;;;5024488;28;20112;-78
2022/05/14 06:53:28;;;;;;;6.88;3.90;;;15.10;99.90;;;;;;5029516;28;20041;-77
2022/05/14 06:55:57;;;;;;;8.20;3.88;;;15.20;99.90;;;;;;5028525;28;20120;-76
2022/05/14 06:58:28;;;;;;;8.85;4.80;;;15.30;99.90;;;;;;5028729;28;20597;-76
2022/05/14 07:00:54;;;;;;;10.98;4.50;;;15.40;99.90;;;;;;5010859;28;20044;-77
2022/05/14 07:08:50;;;;;;;8.50;4.10;;;15.80;99.90;;;;;;5027567;28;20117;-77
2022/05/14 07:11:16;;;;;;;8.98;3.72;;;15.90;99.90;;;;;;5029300;28;20052;-77
2022/05/14 07:13:41;;;;;;;7.22;3.47;;;16.00;99.90;;;;;;5029256;28;20521;-78
2022/05/14 07:16:07;;;;;;;10.88;4.22;;;16.20;99.90;;;;;;5028384;28;20069;-80
2022/05/14 07:18:33;;;;;;;8.55;3.30;;;16.30;99.90;;;;;;4994019;28;20037;-78
2022/05/14 07:20:59;;;;;;;8.20;2.63;;;16.40;99.90;;;;;;5028252;28;20033;-79
2022/05/14 07:23:24;;;;;;;8.60;2.72;;;16.60;99.90;;;;;;5029211;28;20021;-78
2022/05/14 07:25:50;;;;;;;8.85;2.53;;;16.70;99.90;;;;;;5028436;28;20056;-80
2022/05/14 07:28:16;;;;;;;5.82;2.45;;;16.80;99.90;;;;;;5027436;28;20528;-78
2022/05/14 07:30:41;;;;;;;6.63;2.45;;;16.90;99.90;;;;;;5029171;28;20477;-78
2022/05/14 07:33:07;;;;;;;5.57;2.33;;;17.00;99.90;;;;;;5028601;28;20036;-80
2022/05/14 07:35:34;;;;;;;7.63;2.50;;;17.00;99.90;;;;;;5028656;28;20489;-78
2022/05/14 07:38:03;;;;;;;7.40;2.47;;;17.10;99.90;;;;;;5025855;28;20041;-77
2022/05/14 07:40:33;;;;;;;6.10;3.20;;;17.30;99.90;;;;;;5013895;28;20060;-77
2022/05/14 07:43:01;;;;;;;11.82;2.55;;;17.30;99.90;;;;;;5031281;28;20061;-79
2022/05/14 07:45:49;;;;;;;3.78;2.30;;;17.50;99.90;;;;;;5032010;28;20036;-79
2022/05/14 07:48:36;;;;;;;7.05;2.08;;;17.70;99.90;;;;;;5013030;28;20032;-79
2022/05/14 07:51:04;;;;;;;5.57;2.05;;;17.80;99.90;;;;;;5012164;28;20490;-80
2022/05/14 07:53:31;;;;;;;9.20;2.20;;;17.80;99.90;;;;;;5011360;28;20041;-78
2022/05/14 07:55:58;;;;;;;6.93;2.10;;;18.00;99.90;;;;;;5012386;28;20042;-80
2022/05/14 07:58:25;;;;;;;5.72;1.88;;;18.10;99.90;;;;;;5032482;28;20033;-76
2022/05/14 08:00:51;;;;;;;5.10;2.13;;;18.20;99.90;;;;;;5031362;28;20478;-80
2022/05/14 08:03:17;;;;;;;6.32;1.90;;;18.30;99.90;;;;;;5032429;28;20113;-77
2022/05/14 08:05:43;;;;;;;6.40;1.98;;;18.20;99.90;;;;;;5030932;28;20506;-75
2022/05/14 08:08:09;;;;;;;4.60;1.83;;;18.30;99.90;;;;;;5031609;28;20033;-79
2022/05/14 08:10:35;;;;;;;4.90;1.67;;;18.40;99.90;;;;;;5032521;28;20381;-78
2022/05/14 08:13:01;;;;;;;6.65;1.60;;;18.40;99.90;;;;;;5030846;28;20033;-79
2022/05/14 08:15:27;;;;;;;3.28;1.60;;;18.50;99.90;;;;;;5027812;28;20041;-74
2022/05/14 08:17:53;;;;;;;4.45;1.73;;;18.60;99.90;;;;;;5022590;28;20119;-76
2022/05/14 08:20:21;;;;;;;4.10;1.63;;;18.70;99.90;;;;;;5025991;28;20025;-78
2022/05/14 08:25:31;;;;;;;5.45;1.67;;;19.20;99.90;;;;;;5022386;28;20088;-76
2022/05/14 08:27:57;;;;;;;3.35;1.55;;;19.30;99.90;;;;;;5028938;28;20470;-79
2022/05/14 08:30:29;;;;;;;11.85;1.92;;;19.10;99.90;;;;;;5028966;28;20087;-78
2022/05/14 08:32:56;;;;;;;3.42;1.45;;;19.20;99.90;;;;;;5027304;28;20053;-77
2022/05/14 08:35:22;;;;;;;5.63;1.65;;;19.10;99.90;;;;;;5009725;28;20398;-78
2022/05/14 08:37:52;;;;;;;2.83;1.20;;;19.00;99.90;;;;;;5026826;28;20071;-76
2022/05/14 08:40:22;;;;;;;4.78;1.63;;;19.10;99.90;;;;;;5024580;28;20045;-79
2022/05/14 08:42:53;;;;;;;3.45;1.45;;;19.20;99.90;;;;;;5026087;28;20313;-72
2022/05/14 08:45:21;;;;;;;5.00;1.60;;;19.30;99.90;;;;;;5028353;28;20436;-78
2022/05/14 08:47:55;;;;;;;4.40;1.50;;;19.30;99.90;;;;;;5023969;28;20553;-78
2022/05/14 08:50:31;;;;;;;5.05;1.40;;;19.80;99.40;;;;;;5031482;28;20034;-78
2022/05/14 08:53:00;;;;;;;6.38;1.25;;;20.10;99.90;;;;;;5026377;28;20091;-77
2022/05/14 08:55:46;;;;;;;3.75;1.30;;;20.20;95.00;;;;;;5025044;28;20394;-73
2022/05/14 08:58:45;;;;;;;4.35;1.48;;;20.20;96.00;;;;;;5025311;28;20040;-75
2022/05/14 09:01:18;;;;;;;5.50;1.23;;;20.40;98.60;;;;;;5023376;28;20021;-77
2022/05/14 09:03:44;;;;;;;4.28;1.33;;;20.30;98.90;;;;;;5024314;28;20053;-76
2022/05/14 09:06:10;;;;;;;8.63;2.13;;;20.30;95.00;;;;;;5027977;28;20115;-76
2022/05/14 09:08:36;;;;;;;4.45;1.45;;;20.50;97.80;;;;;;5029926;28;20045;-76
2022/05/14 09:11:11;;;;;;;4.72;1.50;;;20.30;96.40;;;;;;5029263;28;20060;-77
2022/05/14 09:13:46;;;;;;;5.45;1.30;;;20.30;99.20;;;;;;5028042;28;20083;-76
2022/05/14 09:16:32;;;;;;;4.85;1.42;;;20.10;96.90;;;;;;5028371;28;20131;-76
2022/05/14 09:18:58;;;;;;;6.53;1.35;;;20.30;98.70;;;;;;5029303;28;20037;-74
2022/05/14 09:21:35;;;;;;;3.60;1.50;;;20.40;95.50;;;;;;5029775;28;20409;-74
2022/05/14 09:24:16;;;;;;;6.78;1.40;;;20.10;93.20;;;;;;5028707;28;20091;-76
2022/05/14 09:26:43;;;;;;;7.05;1.95;;;19.90;95.90;;;;;;5026179;28;20144;-76
2022/05/14 09:29:33;;;;;;;6.93;1.58;;;20.10;95.20;;;;;;5024420;28;20026;-73
2022/05/14 09:32:06;;;;;;;5.82;1.40;;;20.20;95.80;;;;;;5028930;28;20034;-75
2022/05/14 09:34:35;;;;;;;3.28;1.35;;;20.10;93.30;;;;;;5011803;28;20136;-77
2022/05/14 09:37:08;;;;;;;3.35;1.42;;;20.50;95.90;;;;;;5026371;28;20041;-75
2022/05/14 09:39:34;;;;;;;4.32;1.33;;;20.60;93.70;;;;;;5025801;28;20409;-76
2022/05/14 09:42:01;;;;;;;3.72;1.20;;;20.70;94.60;;;;;;5027345;28;20025;-77
2022/05/14 09:44:39;;;;;;;6.03;1.38;;;20.80;94.90;;;;;;5030617;28;20521;-77
2022/05/14 09:47:24;;;;;;;3.67;1.73;;;21.00;97.20;;;;;;5029563;28;20029;-76
2022/05/14 09:50:04;;;;;;;4.50;1.40;;;20.90;92.50;;;;;;5029974;28;20036;-76
2022/05/14 09:52:34;;;;;;;6.78;1.70;;;20.90;94.00;;;;;;5025123;28;20033;-77
2022/05/14 09:55:03;;;;;;;7.17;2.00;;;21.00;94.10;;;;;;5027402;28;20041;-75
2022/05/14 09:57:38;;;;;;;4.00;1.30;;;20.90;91.30;;;;;;5012463;28;20485;-74
2022/05/14 10:00:12;;;;;;;5.22;1.70;;;20.90;94.00;;;;;;5010444;28;20057;-76
2022/05/14 10:02:44;;;;;;;4.95;1.65;;;21.20;92.30;;;;;;5029326;28;20114;-75
2022/05/14 10:05:28;;;;;;;6.07;1.33;;;21.60;90.50;;;;;;5024938;28;20129;-76
2022/05/14 10:08:02;;;;;;;4.43;1.30;;;21.80;88.40;;;;;;5024439;28;20105;-74
2022/05/14 10:10:42;;;;;;;3.83;1.52;;;21.90;90.00;;;;;;5014708;28;20039;-74
2022/05/14 10:13:18;;;;;;;5.65;1.48;;;21.60;87.60;;;;;;5027558;28;20084;-76
2022/05/14 10:16:12;;;;;;;5.18;2.17;;;21.40;88.70;;;;;;5027096;28;20356;-77
2022/05/14 10:19:05;;;;;;;3.95;1.73;;;21.20;90.30;;;;;;4975274;28;20068;-76
2022/05/14 10:21:56;;;;;;;3.35;1.63;;;21.20;90.80;;;;;;5023935;28;20044;-76
2022/05/14 10:28:04;;;;;;;5.75;1.48;;;21.50;85.40;;;;;;5029497;28;20068;-75
2022/05/14 10:30:56;;;;;;;4.70;1.35;;;21.50;86.30;;;;;;5029127;28;20059;-77
2022/05/14 10:33:26;;;;;;;3.47;1.60;;;21.60;83.30;;;;;;5022702;28;20036;-76
2022/05/14 10:36:07;;;;;;;7.25;2.00;;;21.60;90.10;;;;;;5025959;28;20389;-76
2022/05/14 10:38:47;;;;;;;6.18;1.30;;;21.70;81.30;;;;;;4993432;28;20061;-74
2022/05/14 10:41:31;;;;;;;5.43;1.25;;;21.60;85.40;;;;;;5028168;28;20061;-76
2022/05/14 10:44:04;;;;;;;2.85;1.50;;;21.90;80.50;;;;;;5025909;28;20172;-75
2022/05/14 10:46:34;;;;;;;7.88;1.42;;;22.00;88.70;;;;;;5011092;28;20030;-75
2022/05/14 10:49:15;;;;;;;4.70;1.20;;;22.00;83.40;;;;;;5009029;28;20084;-74
2022/05/14 10:52:06;;;;;;;;;;;22.00;76.00;;;;;;5020665;28;20037;-79
2022/05/14 10:54:33;;;;;;;9.68;2.25;;;22.00;78.80;;;;;;5022393;28;20011;-77
2022/05/14 10:57:19;;;;;;;5.00;1.45;;;22.30;79.50;;;;;;5024075;28;20082;-73
2022/05/14 10:59:54;;;;;;;4.57;1.38;;;22.40;78.20;;;;;;5005996;28;20069;-77
2022/05/14 11:02:25;;;;;;;4.00;1.27;;;22.40;74.00;;;;;;5026777;28;20030;-76
2022/05/14 11:04:52;;;;;;;6.22;1.60;;;22.30;80.40;;;;;;5009203;28;20034;-78
2022/05/14 11:07:32;;;;;;;4.75;1.30;;;22.30;71.20;;;;;;5026839;28;20037;-78
2022/05/14 11:10:34;;;;;;;7.68;1.50;;;22.90;81.50;;;;;;5008985;28;20041;-76
2022/05/14 11:13:29;;;;;;;5.07;1.20;;;23.30;78.20;;;;;;5024044;28;20044;-74
2022/05/14 11:16:10;;;;;;;3.88;1.95;;;23.30;77.40;;;;;;5005384;28;20203;-76
2022/05/14 11:18:47;;;;;;;5.30;1.80;;;22.90;73.70;;;;;;5031841;28;20045;-78
2022/05/14 11:21:14;;;;;;;5.63;1.40;;;22.70;74.70;;;;;;5024857;28;20280;-75
2022/05/14 11:23:56;;;;;;;4.07;1.30;;;22.60;71.50;;;;;;5027477;28;20107;-77
2022/05/14 11:26:23;;;;;;;6.28;1.60;;;22.60;66.80;;;;;;5028385;28;20064;-79
2022/05/14 11:29:14;;;;;;;3.67;1.20;;;23.10;75.50;;;;;;5029332;28;20458;-79
2022/05/14 11:31:51;;;;;;;3.33;1.52;;;23.60;72.50;;;;;;5026340;28;20099;-79
2022/05/14 11:34:23;;;;;;;3.97;1.83;;;23.80;62.00;;;;;;5030624;28;20124;-78
2022/05/14 11:36:54;;;;;;;6.88;1.50;;;24.30;75.90;;;;;;5029374;28;20034;-80
2022/05/14 11:39:22;;;;;;;2.65;1.33;;;24.50;64.70;;;;;;5029559;28;20682;-81
2022/05/14 11:41:54;;;;;;;5.90;1.70;;;24.40;63.20;;;;;;5028097;28;20029;-79
2022/05/14 11:44:50;;;;;;;2.65;1.33;;;23.90;65.70;;;;;;5029198;28;20052;-78
2022/05/14 11:47:33;;;;;;;3.00;1.73;;;23.80;59.90;;;;;;4990861;28;20099;-78
2022/05/14 11:50:03;;;;;;;2.00;1.30;;;23.80;64.60;;;;;;5029258;28;20040;-74
2022/05/14 11:52:40;;;;;;;3.92;1.20;;;23.70;67.30;;;;;;5031725;28;20080;-80
2022/05/14 11:55:15;;;;;;;4.30;1.17;;;23.50;62.90;;;;;;5031413;28;20046;-79
2022/05/14 11:57:47;;;;;;;2.38;1.30;;;23.30;62.30;;;;;;5030232;28;20021;-76
2022/05/14 12:00:20;;;;;;;3.10;1.05;;;23.30;63.40;;;;;;5030614;28;20033;-75
2022/05/14 12:03:04;;;;;;;1.80;1.08;;;23.50;62.70;;;;;;5027974;28;20375;-76
2022/05/14 12:05:33;;;;;;;3.80;1.40;;;24.00;61.70;;;;;;5030263;28;20041;-78
2022/05/14 12:08:27;;;;;;;5.25;1.92;;;23.90;56.40;;;;;;5030324;28;20478;-78
2022/05/14 12:11:17;;;;;;;6.13;1.10;;;24.30;62.00;;;;;;5008836;28;20041;-75
2022/05/14 12:14:12;;;;;;;4.65;1.30;;;24.50;57.70;;;;;;5028441;28;20064;-75
2022/05/14 12:16:41;;;;;;;4.97;1.20;;;24.70;65.10;;;;;;5026791;28;20037;-77
2022/05/14 12:19:24;;;;;;;3.40;1.20;;;24.90;61.60;;;;;;5024498;28;20022;-76
2022/05/14 12:21:56;;;;;;;6.13;1.60;;;25.00;60.20;;;;;;5011503;28;20041;-76
2022/05/14 12:24:28;;;;;;;2.28;1.10;;;24.60;58.80;;;;;;5027148;28;20033;-74
2022/05/14 12:26:54;;;;;;;5.05;1.10;;;24.30;66.80;;;;;;5024587;28;20037;-76
2022/05/14 12:29:28;;;;;;;1.55;0.80;;;24.20;60.30;;;;;;5027351;28;20025;-76
2022/05/14 12:34:56;;;;;;;3.00;1.05;;;24.40;56.50;;;;;;5023708;28;20044;-76
2022/05/14 12:37:48;;;;;;;3.25;0.90;;;24.40;55.00;;;;;;5028029;28;20026;-77
2022/05/14 12:40:25;;;;;;;2.85;1.00;;;24.70;57.40;;;;;;5006520;28;20050;-74
2022/05/14 12:42:52;;;;;;;1.50;0.90;;;24.70;52.60;;;;;;5009626;28;20083;-75
2022/05/14 12:45:18;;;;;;;3.00;1.00;;;24.90;52.50;;;;;;5008618;28;20049;-75
2022/05/14 12:47:44;;;;;;;3.28;1.08;;;25.00;59.70;;;;;;5006627;28;20030;-77
2022/05/14 12:50:19;;;;;;;5.60;1.58;;;25.20;55.20;;;;;;5009159;28;20033;-76
2022/05/14 12:52:56;;;;;;;2.45;1.13;;;25.20;52.80;;;;;;5008703;28;20037;-74
2022/05/14 12:55:24;;;;;;;3.00;0.82;;;25.10;57.20;;;;;;5004606;28;20030;-77
2022/05/14 12:57:51;;;;;;;1.98;0.95;;;25.30;49.70;;;;;;5009876;28;20044;-75
2022/05/14 13:00:18;;;;;;;2.55;0.70;;;25.30;52.30;;;;;;5004552;28;20029;-74
2022/05/14 13:02:58;;;;;;;4.10;1.25;;;25.20;53.90;;;;;;5009976;28;20037;-74
2022/05/14 13:05:37;;;;;;;2.67;1.17;;;25.20;57.20;;;;;;5004696;28;20117;-74
2022/05/14 13:08:25;;;;;;;3.92;1.15;;;24.90;51.20;;;;;;5010434;28;20421;-74
2022/05/14 13:10:57;;;;;;;3.58;0.90;;;24.30;52.80;;;;;;5002200;28;20096;-74
2022/05/14 13:13:35;;;;;;;2.42;0.90;;;24.50;55.90;;;;;;5005798;28;20737;-74
2022/05/14 13:16:09;;;;;;;2.75;0.80;;;24.80;52.90;;;;;;5007662;28;20038;-74
2022/05/14 13:18:38;;;;;;;3.08;0.98;;;24.90;50.20;;;;;;5009762;28;20030;-76
2022/05/14 13:21:07;;;;;;;5.45;1.30;;;25.00;50.70;;;;;;5009976;28;20086;-74
2022/05/14 13:23:35;;;;;;;1.95;0.82;;;24.90;47.50;;;;;;5007307;28;20069;-74
2022/05/14 13:26:06;;;;;;;1.98;0.90;;;24.60;44.50;;;;;;5008882;28;20106;-75
2022/05/14 13:28:37;;;;;;;3.67;0.95;;;24.70;50.60;;;;;;5010399;28;20109;-75
2022/05/14 13:31:17;;;;;;;3.50;0.80;;;24.90;47.80;;;;;;5008833;28;20064;-76